Chanticleer, Arkansas
Current Conditions -  °F | °C
As of 6:53 AM on Saturday 20 Dec 2014 (Local Time) from KGLH Reporting Station
Haze Haze  
Wind Chill: 32°   Ceiling: Unl
Heat Index: 37°   Visibility: 5mi
Dew Point: 35°   Wind: 7mph
Humidity: 93%   Direction: 20°NNE
Pressure: 30.25"   Gusts: NA
Location:  33.3324°N, 91.3183°W
Report Text: KGLH 201253Z AUTO 02006KT 5SM BR CLR 03/02 A3025 RMK AO2 SLP251 T00280017
Loading
Personal Weather Stations






























Interactive Weather Map New forecast layout! Learn more

10-Day Weather Forecast

Advertisements
Track Severe Weather on mobile